sensor_id;sensor_type;location;lat;lon;timestamp;P1;durP1;ratioP1;P2;durP2;ratioP2
48042;SDS011;33988;47.992;8.820;2023-05-28T00:00:22;4.72;;;2.80;;
48042;SDS011;33988;47.992;8.820;2023-05-28T00:02:50;3.45;;;2.75;;
48042;SDS011;33988;47.992;8.820;2023-05-28T00:05:19;5.50;;;2.90;;
48042;SDS011;33988;47.992;8.820;2023-05-28T00:07:48;3.22;;;2.53;;
48042;SDS011;33988;47.992;8.820;2023-05-28T00:12:46;3.65;;;2.85;;
48042;SDS011;33988;47.992;8.820;2023-05-28T00:15:18;4.63;;;2.65;;
48042;SDS011;33988;47.992;8.820;2023-05-28T00:17:46;4.95;;;3.00;;
48042;SDS011;33988;47.992;8.820;2023-05-28T00:20:13;4.07;;;2.83;;
48042;SDS011;33988;47.992;8.820;2023-05-28T00:22:40;3.85;;;2.92;;
48042;SDS011;33988;47.992;8.820;2023-05-28T00:25:13;3.10;;;2.72;;
48042;SDS011;33988;47.992;8.820;2023-05-28T00:27:40;5.28;;;3.17;;
48042;SDS011;33988;47.992;8.820;2023-05-28T00:30:07;4.00;;;2.85;;
48042;SDS011;33988;47.992;8.820;2023-05-28T00:32:37;4.53;;;2.90;;
48042;SDS011;33988;47.992;8.820;2023-05-28T00:35:04;3.60;;;2.78;;
48042;SDS011;33988;47.992;8.820;2023-05-28T00:37:31;5.07;;;2.92;;
48042;SDS011;33988;47.992;8.820;2023-05-28T00:39:59;5.88;;;3.20;;
48042;SDS011;33988;47.992;8.820;2023-05-28T00:42:31;5.80;;;3.30;;
48042;SDS011;33988;47.992;8.820;2023-05-28T00:44:58;4.82;;;3.15;;
48042;SDS011;33988;47.992;8.820;2023-05-28T00:47:26;3.90;;;2.97;;
48042;SDS011;33988;47.992;8.820;2023-05-28T00:49:53;4.60;;;2.85;;
48042;SDS011;33988;47.992;8.820;2023-05-28T00:52:21;3.70;;;2.85;;
48042;SDS011;33988;47.992;8.820;2023-05-28T00:54:49;5.03;;;3.20;;
48042;SDS011;33988;47.992;8.820;2023-05-28T00:57:16;7.03;;;3.28;;
48042;SDS011;33988;47.992;8.820;2023-05-28T00:59:50;5.60;;;3.17;;
48042;SDS011;33988;47.992;8.820;2023-05-28T01:02:18;5.30;;;3.63;;
48042;SDS011;33988;47.992;8.820;2023-05-28T01:04:45;8.38;;;3.75;;
48042;SDS011;33988;47.992;8.820;2023-05-28T01:07:15;7.03;;;4.00;;
48042;SDS011;33988;47.992;8.820;2023-05-28T01:09:42;7.45;;;3.80;;
48042;SDS011;33988;47.992;8.820;2023-05-28T01:12:14;5.85;;;3.47;;
48042;SDS011;33988;47.992;8.820;2023-05-28T01:17:16;5.57;;;3.13;;
48042;SDS011;33988;47.992;8.820;2023-05-28T01:19:46;6.63;;;3.33;;
48042;SDS011;33988;47.992;8.820;2023-05-28T01:22:18;4.63;;;3.10;;
48042;SDS011;33988;47.992;8.820;2023-05-28T01:24:58;8.13;;;3.35;;
48042;SDS011;33988;47.992;8.820;2023-05-28T01:27:29;4.63;;;3.00;;
48042;SDS011;33988;47.992;8.820;2023-05-28T01:29:56;4.97;;;3.13;;
48042;SDS011;33988;47.992;8.820;2023-05-28T01:32:25;6.60;;;3.25;;
48042;SDS011;33988;47.992;8.820;2023-05-28T01:34:52;6.72;;;3.38;;
48042;SDS011;33988;47.992;8.820;2023-05-28T01:37:22;5.78;;;3.13;;
48042;SDS011;33988;47.992;8.820;2023-05-28T01:39:51;6.13;;;3.10;;
48042;SDS011;33988;47.992;8.820;2023-05-28T01:42:19;5.13;;;2.97;;
48042;SDS011;33988;47.992;8.820;2023-05-28T01:44:46;4.85;;;2.70;;
48042;SDS011;33988;47.992;8.820;2023-05-28T01:47:14;6.30;;;3.03;;
48042;SDS011;33988;47.992;8.820;2023-05-28T01:49:44;5.32;;;3.40;;
48042;SDS011;33988;47.992;8.820;2023-05-28T01:52:13;5.45;;;3.03;;
48042;SDS011;33988;47.992;8.820;2023-05-28T01:54:40;6.22;;;3.60;;
48042;SDS011;33988;47.992;8.820;2023-05-28T01:57:07;5.43;;;3.25;;
48042;SDS011;33988;47.992;8.820;2023-05-28T01:59:34;5.20;;;2.95;;
48042;SDS011;33988;47.992;8.820;2023-05-28T02:02:01;7.30;;;3.13;;
48042;SDS011;33988;47.992;8.820;2023-05-28T02:04:28;4.43;;;3.00;;
48042;SDS011;33988;47.992;8.820;2023-05-28T02:06:55;5.25;;;3.08;;
48042;SDS011;33988;47.992;8.820;2023-05-28T02:09:22;5.68;;;3.15;;
48042;SDS011;33988;47.992;8.820;2023-05-28T02:11:49;6.88;;;3.20;;
48042;SDS011;33988;47.992;8.820;2023-05-28T02:14:16;5.68;;;3.10;;
48042;SDS011;33988;47.992;8.820;2023-05-28T02:16:47;4.72;;;3.13;;
48042;SDS011;33988;47.992;8.820;2023-05-28T02:19:14;4.47;;;2.78;;
48042;SDS011;33988;47.992;8.820;2023-05-28T02:21:42;3.85;;;2.83;;
48042;SDS011;33988;47.992;8.820;2023-05-28T02:24:09;4.55;;;2.95;;
48042;SDS011;33988;47.992;8.820;2023-05-28T02:26:36;4.80;;;3.13;;
48042;SDS011;33988;47.992;8.820;2023-05-28T02:29:05;5.05;;;3.15;;
48042;SDS011;33988;47.992;8.820;2023-05-28T02:31:32;5.10;;;3.05;;
48042;SDS011;33988;47.992;8.820;2023-05-28T02:33:59;4.97;;;3.05;;
48042;SDS011;33988;47.992;8.820;2023-05-28T02:36:26;6.68;;;3.10;;
48042;SDS011;33988;47.992;8.820;2023-05-28T02:38:56;5.78;;;3.00;;
48042;SDS011;33988;47.992;8.820;2023-05-28T02:41:27;7.00;;;2.80;;
48042;SDS011;33988;47.992;8.820;2023-05-28T02:43:54;7.00;;;3.10;;
48042;SDS011;33988;47.992;8.820;2023-05-28T02:46:24;6.05;;;3.45;;
48042;SDS011;33988;47.992;8.820;2023-05-28T02:48:53;9.13;;;3.25;;
48042;SDS011;33988;47.992;8.820;2023-05-28T02:51:20;4.28;;;2.85;;
48042;SDS011;33988;47.992;8.820;2023-05-28T02:53:47;5.07;;;3.03;;
48042;SDS011;33988;47.992;8.820;2023-05-28T02:56:17;6.93;;;3.22;;
48042;SDS011;33988;47.992;8.820;2023-05-28T02:58:48;7.93;;;3.40;;
48042;SDS011;33988;47.992;8.820;2023-05-28T03:01:15;4.00;;;2.80;;
48042;SDS011;33988;47.992;8.820;2023-05-28T03:03:47;4.03;;;3.10;;
48042;SDS011;33988;47.992;8.820;2023-05-28T03:06:14;3.92;;;2.83;;
48042;SDS011;33988;47.992;8.820;2023-05-28T03:08:41;4.88;;;2.90;;
48042;SDS011;33988;47.992;8.820;2023-05-28T03:11:08;5.13;;;3.20;;
48042;SDS011;33988;47.992;8.820;2023-05-28T03:13:35;6.88;;;2.80;;
48042;SDS011;33988;47.992;8.820;2023-05-28T03:16:02;5.85;;;3.20;;
48042;SDS011;33988;47.992;8.820;2023-05-28T03:18:31;4.65;;;2.88;;
48042;SDS011;33988;47.992;8.820;2023-05-28T03:21:00;5.50;;;3.83;;
48042;SDS011;33988;47.992;8.820;2023-05-28T03:23:27;5.30;;;3.17;;
48042;SDS011;33988;47.992;8.820;2023-05-28T03:25:54;4.65;;;2.88;;
48042;SDS011;33988;47.992;8.820;2023-05-28T03:28:23;4.95;;;2.78;;
48042;SDS011;33988;47.992;8.820;2023-05-28T03:30:50;6.13;;;3.40;;
48042;SDS011;33988;47.992;8.820;2023-05-28T03:33:17;5.20;;;3.05;;
48042;SDS011;33988;47.992;8.820;2023-05-28T03:35:48;4.82;;;2.72;;
48042;SDS011;33988;47.992;8.820;2023-05-28T03:38:15;3.63;;;2.88;;
48042;SDS011;33988;47.992;8.820;2023-05-28T03:40:42;5.80;;;3.00;;
48042;SDS011;33988;47.992;8.820;2023-05-28T03:43:09;3.75;;;3.15;;
48042;SDS011;33988;47.992;8.820;2023-05-28T03:45:36;4.10;;;2.70;;
48042;SDS011;33988;47.992;8.820;2023-05-28T03:48:06;5.18;;;3.05;;
48042;SDS011;33988;47.992;8.820;2023-05-28T03:50:33;4.95;;;3.00;;
48042;SDS011;33988;47.992;8.820;2023-05-28T03:53:01;5.57;;;2.90;;
48042;SDS011;33988;47.992;8.820;2023-05-28T03:55:30;3.67;;;2.83;;
48042;SDS011;33988;47.992;8.820;2023-05-28T03:57:57;5.05;;;2.83;;
48042;SDS011;33988;47.992;8.820;2023-05-28T04:00:26;4.68;;;3.25;;
48042;SDS011;33988;47.992;8.820;2023-05-28T04:02:53;4.45;;;2.80;;
48042;SDS011;33988;47.992;8.820;2023-05-28T04:05:20;4.75;;;3.10;;
48042;SDS011;33988;47.992;8.820;2023-05-28T04:07:50;4.22;;;3.13;;
48042;SDS011;33988;47.992;8.820;2023-05-28T04:10:17;4.13;;;3.33;;
48042;SDS011;33988;47.992;8.820;2023-05-28T04:12:46;5.47;;;3.20;;
48042;SDS011;33988;47.992;8.820;2023-05-28T04:15:16;4.65;;;3.05;;
48042;SDS011;33988;47.992;8.820;2023-05-28T04:20:14;5.78;;;2.78;;
48042;SDS011;33988;47.992;8.820;2023-05-28T04:22:41;5.80;;;3.10;;
48042;SDS011;33988;47.992;8.820;2023-05-28T04:25:08;4.85;;;3.05;;
48042;SDS011;33988;47.992;8.820;2023-05-28T04:27:35;4.70;;;3.08;;
48042;SDS011;33988;47.992;8.820;2023-05-28T04:30:02;3.60;;;2.97;;
48042;SDS011;33988;47.992;8.820;2023-05-28T04:32:32;5.95;;;3.17;;
48042;SDS011;33988;47.992;8.820;2023-05-28T04:34:59;5.38;;;2.90;;
48042;SDS011;33988;47.992;8.820;2023-05-28T04:37:29;4.75;;;2.97;;
48042;SDS011;33988;47.992;8.820;2023-05-28T04:39:59;5.32;;;2.90;;
48042;SDS011;33988;47.992;8.820;2023-05-28T04:42:28;4.68;;;2.92;;
48042;SDS011;33988;47.992;8.820;2023-05-28T04:44:58;5.00;;;2.97;;
48042;SDS011;33988;47.992;8.820;2023-05-28T04:47:26;5.05;;;2.72;;
48042;SDS011;33988;47.992;8.820;2023-05-28T04:49:53;4.47;;;2.97;;
48042;SDS011;33988;47.992;8.820;2023-05-28T04:52:23;4.60;;;3.35;;
48042;SDS011;33988;47.992;8.820;2023-05-28T04:54:50;3.83;;;2.83;;
48042;SDS011;33988;47.992;8.820;2023-05-28T04:57:17;5.03;;;3.42;;
48042;SDS011;33988;47.992;8.820;2023-05-28T04:59:44;6.70;;;3.17;;
48042;SDS011;33988;47.992;8.820;2023-05-28T05:02:11;5.20;;;3.13;;
48042;SDS011;33988;47.992;8.820;2023-05-28T05:04:39;5.65;;;3.17;;
48042;SDS011;33988;47.992;8.820;2023-05-28T05:07:06;4.85;;;3.08;;
48042;SDS011;33988;47.992;8.820;2023-05-28T05:09:33;4.82;;;3.03;;
48042;SDS011;33988;47.992;8.820;2023-05-28T05:12:00;5.53;;;3.28;;
48042;SDS011;33988;47.992;8.820;2023-05-28T05:14:27;6.65;;;3.88;;
48042;SDS011;33988;47.992;8.820;2023-05-28T05:16:56;4.13;;;2.80;;
48042;SDS011;33988;47.992;8.820;2023-05-28T05:19:23;5.95;;;3.30;;
48042;SDS011;33988;47.992;8.820;2023-05-28T05:21:52;5.07;;;3.20;;
48042;SDS011;33988;47.992;8.820;2023-05-28T05:24:19;5.95;;;2.72;;
48042;SDS011;33988;47.992;8.820;2023-05-28T05:26:47;5.13;;;3.15;;
48042;SDS011;33988;47.992;8.820;2023-05-28T05:29:16;4.63;;;3.40;;
48042;SDS011;33988;47.992;8.820;2023-05-28T05:31:43;3.30;;;2.85;;
48042;SDS011;33988;47.992;8.820;2023-05-28T05:36:41;6.18;;;2.95;;
48042;SDS011;33988;47.992;8.820;2023-05-28T05:39:09;7.40;;;3.15;;
48042;SDS011;33988;47.992;8.820;2023-05-28T05:41:36;5.95;;;3.13;;
48042;SDS011;33988;47.992;8.820;2023-05-28T05:44:05;5.35;;;3.10;;
48042;SDS011;33988;47.992;8.820;2023-05-28T05:46:32;5.82;;;3.20;;
48042;SDS011;33988;47.992;8.820;2023-05-28T05:48:59;4.57;;;3.00;;
48042;SDS011;33988;47.992;8.820;2023-05-28T05:51:28;8.63;;;4.25;;
48042;SDS011;33988;47.992;8.820;2023-05-28T05:53:58;5.32;;;3.28;;
48042;SDS011;33988;47.992;8.820;2023-05-28T05:56:27;8.32;;;3.20;;
48042;SDS011;33988;47.992;8.820;2023-05-28T05:58:57;6.05;;;3.17;;
48042;SDS011;33988;47.992;8.820;2023-05-28T06:01:27;5.10;;;3.38;;
48042;SDS011;33988;47.992;8.820;2023-05-28T06:03:56;7.70;;;4.00;;
48042;SDS011;33988;47.992;8.820;2023-05-28T06:06:27;4.47;;;2.83;;
48042;SDS011;33988;47.992;8.820;2023-05-28T06:08:57;5.72;;;3.28;;
48042;SDS011;33988;47.992;8.820;2023-05-28T06:11:24;4.90;;;3.60;;
48042;SDS011;33988;47.992;8.820;2023-05-28T06:13:54;4.78;;;2.80;;
48042;SDS011;33988;47.992;8.820;2023-05-28T06:16:23;6.07;;;2.75;;
48042;SDS011;33988;47.992;8.820;2023-05-28T06:18:51;8.05;;;2.88;;
48042;SDS011;33988;47.992;8.820;2023-05-28T06:21:18;5.78;;;3.10;;
48042;SDS011;33988;47.992;8.820;2023-05-28T06:23:45;6.88;;;2.90;;
48042;SDS011;33988;47.992;8.820;2023-05-28T06:26:12;4.85;;;2.85;;
48042;SDS011;33988;47.992;8.820;2023-05-28T06:28:42;4.15;;;2.75;;
48042;SDS011;33988;47.992;8.820;2023-05-28T06:31:12;6.50;;;3.17;;
48042;SDS011;33988;47.992;8.820;2023-05-28T06:33:41;7.38;;;2.70;;
48042;SDS011;33988;47.992;8.820;2023-05-28T06:36:11;7.45;;;2.95;;
48042;SDS011;33988;47.992;8.820;2023-05-28T06:38:44;5.03;;;2.92;;
48042;SDS011;33988;47.992;8.820;2023-05-28T06:41:13;3.85;;;2.70;;
48042;SDS011;33988;47.992;8.820;2023-05-28T06:43:43;5.68;;;2.70;;
48042;SDS011;33988;47.992;8.820;2023-05-28T06:46:14;5.13;;;2.50;;
48042;SDS011;33988;47.992;8.820;2023-05-28T06:48:42;7.32;;;2.65;;
48042;SDS011;33988;47.992;8.820;2023-05-28T06:51:09;4.90;;;2.55;;
48042;SDS011;33988;47.992;8.820;2023-05-28T06:53:37;5.20;;;2.60;;
48042;SDS011;33988;47.992;8.820;2023-05-28T06:56:05;4.82;;;2.60;;
48042;SDS011;33988;47.992;8.820;2023-05-28T06:58:32;4.18;;;2.72;;
48042;SDS011;33988;47.992;8.820;2023-05-28T07:00:59;7.25;;;2.97;;
48042;SDS011;33988;47.992;8.820;2023-05-28T07:03:29;6.75;;;2.78;;
48042;SDS011;33988;47.992;8.820;2023-05-28T07:05:58;5.28;;;2.40;;
48042;SDS011;33988;47.992;8.820;2023-05-28T07:08:26;5.15;;;2.70;;
48042;SDS011;33988;47.992;8.820;2023-05-28T07:10:55;4.55;;;2.85;;
48042;SDS011;33988;47.992;8.820;2023-05-28T07:13:22;5.78;;;2.70;;
48042;SDS011;33988;47.992;8.820;2023-05-28T07:15:49;8.68;;;3.45;;
48042;SDS011;33988;47.992;8.820;2023-05-28T07:18:19;7.07;;;2.70;;
48042;SDS011;33988;47.992;8.820;2023-05-28T07:23:18;4.50;;;2.22;;
48042;SDS011;33988;47.992;8.820;2023-05-28T07:25:45;8.23;;;2.95;;
48042;SDS011;33988;47.992;8.820;2023-05-28T07:28:17;5.53;;;2.42;;
48042;SDS011;33988;47.992;8.820;2023-05-28T07:30:44;3.28;;;2.17;;
48042;SDS011;33988;47.992;8.820;2023-05-28T07:33:11;4.53;;;2.58;;
48042;SDS011;33988;47.992;8.820;2023-05-28T07:35:38;5.15;;;2.55;;
48042;SDS011;33988;47.992;8.820;2023-05-28T07:38:05;5.32;;;2.55;;
48042;SDS011;33988;47.992;8.820;2023-05-28T07:40:32;5.03;;;2.80;;
48042;SDS011;33988;47.992;8.820;2023-05-28T07:43:01;4.47;;;2.78;;
48042;SDS011;33988;47.992;8.820;2023-05-28T07:45:28;6.20;;;2.80;;
48042;SDS011;33988;47.992;8.820;2023-05-28T07:47:58;4.85;;;2.92;;
48042;SDS011;33988;47.992;8.820;2023-05-28T07:50:25;5.18;;;2.60;;
48042;SDS011;33988;47.992;8.820;2023-05-28T07:52:53;6.30;;;2.47;;
48042;SDS011;33988;47.992;8.820;2023-05-28T07:55:20;4.28;;;2.63;;
48042;SDS011;33988;47.992;8.820;2023-05-28T07:57:47;4.10;;;2.22;;
48042;SDS011;33988;47.992;8.820;2023-05-28T08:00:17;3.10;;;2.38;;
48042;SDS011;33988;47.992;8.820;2023-05-28T08:02:44;5.20;;;2.30;;
48042;SDS011;33988;47.992;8.820;2023-05-28T08:05:16;4.05;;;2.58;;
48042;SDS011;33988;47.992;8.820;2023-05-28T08:07:44;5.80;;;2.25;;
48042;SDS011;33988;47.992;8.820;2023-05-28T08:10:11;3.88;;;2.35;;
48042;SDS011;33988;47.992;8.820;2023-05-28T08:12:43;4.07;;;2.22;;
48042;SDS011;33988;47.992;8.820;2023-05-28T08:15:10;3.65;;;2.28;;
48042;SDS011;33988;47.992;8.820;2023-05-28T08:17:42;4.50;;;2.40;;
48042;SDS011;33988;47.992;8.820;2023-05-28T08:20:14;6.45;;;2.35;;
48042;SDS011;33988;47.992;8.820;2023-05-28T08:22:44;3.97;;;2.45;;
48042;SDS011;33988;47.992;8.820;2023-05-28T08:25:11;5.53;;;2.80;;
48042;SDS011;33988;47.992;8.820;2023-05-28T08:27:38;4.57;;;2.20;;
48042;SDS011;33988;47.992;8.820;2023-05-28T08:30:07;7.00;;;2.58;;
48042;SDS011;33988;47.992;8.820;2023-05-28T08:32:35;4.53;;;2.13;;
48042;SDS011;33988;47.992;8.820;2023-05-28T08:35:02;7.18;;;2.60;;
48042;SDS011;33988;47.992;8.820;2023-05-28T08:37:30;5.03;;;2.30;;
48042;SDS011;33988;47.992;8.820;2023-05-28T08:39:57;4.97;;;2.50;;
48042;SDS011;33988;47.992;8.820;2023-05-28T08:42:24;4.50;;;2.60;;
48042;SDS011;33988;47.992;8.820;2023-05-28T08:44:54;5.70;;;2.50;;
48042;SDS011;33988;47.992;8.820;2023-05-28T08:47:21;3.30;;;2.30;;
48042;SDS011;33988;47.992;8.820;2023-05-28T08:49:51;3.70;;;2.08;;
48042;SDS011;33988;47.992;8.820;2023-05-28T08:52:21;3.65;;;2.28;;
48042;SDS011;33988;47.992;8.820;2023-05-28T08:54:52;6.00;;;2.38;;
48042;SDS011;33988;47.992;8.820;2023-05-28T08:57:24;4.93;;;2.50;;
48042;SDS011;33988;47.992;8.820;2023-05-28T08:59:52;3.65;;;2.25;;
48042;SDS011;33988;47.992;8.820;2023-05-28T09:02:25;5.10;;;2.33;;
48042;SDS011;33988;47.992;8.820;2023-05-28T09:04:52;3.58;;;2.17;;
48042;SDS011;33988;47.992;8.820;2023-05-28T09:07:22;3.83;;;2.13;;
48042;SDS011;33988;47.992;8.820;2023-05-28T09:09:49;6.53;;;2.55;;
48042;SDS011;33988;47.992;8.820;2023-05-28T09:12:20;4.63;;;2.35;;
48042;SDS011;33988;47.992;8.820;2023-05-28T09:14:51;3.25;;;2.30;;
48042;SDS011;33988;47.992;8.820;2023-05-28T09:20:21;4.65;;;2.28;;
48042;SDS011;33988;47.992;8.820;2023-05-28T09:23:25;3.95;;;2.42;;
48042;SDS011;33988;47.992;8.820;2023-05-28T09:25:45;5.32;;;2.38;;
48042;SDS011;33988;47.992;8.820;2023-05-28T09:28:14;3.88;;;2.17;;
48042;SDS011;33988;47.992;8.820;2023-05-28T09:30:43;3.75;;;2.45;;
48042;SDS011;33988;47.992;8.820;2023-05-28T09:33:11;3.58;;;2.35;;
48042;SDS011;33988;47.992;8.820;2023-05-28T09:35:38;5.20;;;2.10;;
48042;SDS011;33988;47.992;8.820;2023-05-28T09:38:10;4.43;;;2.38;;
48042;SDS011;33988;47.992;8.820;2023-05-28T09:40:40;4.22;;;2.30;;
48042;SDS011;33988;47.992;8.820;2023-05-28T09:43:09;4.43;;;2.20;;
48042;SDS011;33988;47.992;8.820;2023-05-28T09:45:37;4.18;;;2.60;;
48042;SDS011;33988;47.992;8.820;2023-05-28T09:48:04;3.33;;;2.50;;
48042;SDS011;33988;47.992;8.820;2023-05-28T09:50:31;3.20;;;2.13;;
48042;SDS011;33988;47.992;8.820;2023-05-28T09:53:03;4.03;;;2.25;;
48042;SDS011;33988;47.992;8.820;2023-05-28T09:55:30;3.65;;;2.47;;
48042;SDS011;33988;47.992;8.820;2023-05-28T09:58:05;4.13;;;2.25;;
48042;SDS011;33988;47.992;8.820;2023-05-28T10:00:33;4.47;;;2.40;;
48042;SDS011;33988;47.992;8.820;2023-05-28T10:06:06;3.90;;;2.00;;
48042;SDS011;33988;47.992;8.820;2023-05-28T10:08:38;2.97;;;2.00;;
48042;SDS011;33988;47.992;8.820;2023-05-28T10:11:09;3.85;;;2.13;;
48042;SDS011;33988;47.992;8.820;2023-05-28T10:13:41;3.10;;;1.98;;
48042;SDS011;33988;47.992;8.820;2023-05-28T10:16:09;4.30;;;2.20;;
48042;SDS011;33988;47.992;8.820;2023-05-28T10:18:36;3.25;;;2.30;;
48042;SDS011;33988;47.992;8.820;2023-05-28T10:21:09;4.20;;;2.50;;
48042;SDS011;33988;47.992;8.820;2023-05-28T10:23:40;3.72;;;2.40;;
48042;SDS011;33988;47.992;8.820;2023-05-28T10:26:11;3.08;;;2.17;;
48042;SDS011;33988;47.992;8.820;2023-05-28T10:28:39;4.65;;;2.50;;
48042;SDS011;33988;47.992;8.820;2023-05-28T10:31:07;3.95;;;2.38;;
48042;SDS011;33988;47.992;8.820;2023-05-28T10:33:39;4.32;;;2.42;;
48042;SDS011;33988;47.992;8.820;2023-05-28T10:36:11;3.50;;;2.40;;
48042;SDS011;33988;47.992;8.820;2023-05-28T10:38:44;3.95;;;2.30;;
48042;SDS011;33988;47.992;8.820;2023-05-28T10:41:22;3.28;;;2.30;;
48042;SDS011;33988;47.992;8.820;2023-05-28T10:43:53;6.10;;;2.50;;
48042;SDS011;33988;47.992;8.820;2023-05-28T10:49:32;3.75;;;2.20;;
48042;SDS011;33988;47.992;8.820;2023-05-28T10:57:09;3.10;;;2.25;;
48042;SDS011;33988;47.992;8.820;2023-05-28T11:02:32;4.13;;;2.22;;
48042;SDS011;33988;47.992;8.820;2023-05-28T11:05:02;3.05;;;2.10;;
48042;SDS011;33988;47.992;8.820;2023-05-28T11:07:41;4.03;;;2.58;;
48042;SDS011;33988;47.992;8.820;2023-05-28T11:10:11;3.17;;;2.38;;
48042;SDS011;33988;47.992;8.820;2023-05-28T11:12:43;3.88;;;2.30;;
48042;SDS011;33988;47.992;8.820;2023-05-28T11:15:13;4.82;;;2.25;;
48042;SDS011;33988;47.992;8.820;2023-05-28T11:17:43;4.55;;;2.08;;
48042;SDS011;33988;47.992;8.820;2023-05-28T11:20:22;4.00;;;2.37;;
48042;SDS011;33988;47.992;8.820;2023-05-28T11:22:55;2.97;;;2.15;;
48042;SDS011;33988;47.992;8.820;2023-05-28T11:25:29;4.63;;;2.13;;
48042;SDS011;33988;47.992;8.820;2023-05-28T11:27:56;4.63;;;2.50;;
48042;SDS011;33988;47.992;8.820;2023-05-28T11:30:26;4.45;;;2.30;;
48042;SDS011;33988;47.992;8.820;2023-05-28T11:32:53;2.70;;;1.88;;
48042;SDS011;33988;47.992;8.820;2023-05-28T11:35:21;4.40;;;2.00;;
48042;SDS011;33988;47.992;8.820;2023-05-28T11:37:50;3.35;;;2.40;;
48042;SDS011;33988;47.992;8.820;2023-05-28T11:40:19;4.15;;;2.30;;
48042;SDS011;33988;47.992;8.820;2023-05-28T11:42:46;3.80;;;2.30;;
48042;SDS011;33988;47.992;8.820;2023-05-28T11:45:13;3.92;;;2.38;;
48042;SDS011;33988;47.992;8.820;2023-05-28T11:47:40;3.33;;;2.00;;
48042;SDS011;33988;47.992;8.820;2023-05-28T11:50:13;4.18;;;2.15;;
48042;SDS011;33988;47.992;8.820;2023-05-28T11:52:41;3.58;;;2.00;;
48042;SDS011;33988;47.992;8.820;2023-05-28T11:55:09;5.55;;;2.28;;
48042;SDS011;33988;47.992;8.820;2023-05-28T11:57:38;4.10;;;2.33;;
48042;SDS011;33988;47.992;8.820;2023-05-28T12:00:17;3.47;;;2.15;;
48042;SDS011;33988;47.992;8.820;2023-05-28T12:02:49;3.28;;;2.03;;
48042;SDS011;33988;47.992;8.820;2023-05-28T12:05:22;3.00;;;2.15;;
48042;SDS011;33988;47.992;8.820;2023-05-28T12:07:51;3.70;;;2.15;;
48042;SDS011;33988;47.992;8.820;2023-05-28T12:10:19;2.72;;;1.80;;
48042;SDS011;33988;47.992;8.820;2023-05-28T12:12:56;5.18;;;2.03;;
48042;SDS011;33988;47.992;8.820;2023-05-28T12:15:24;2.60;;;2.07;;
48042;SDS011;33988;47.992;8.820;2023-05-28T12:17:58;3.20;;;2.00;;
48042;SDS011;33988;47.992;8.820;2023-05-28T12:28:14;3.92;;;2.25;;
48042;SDS011;33988;47.992;8.820;2023-05-28T12:30:50;3.08;;;1.90;;
48042;SDS011;33988;47.992;8.820;2023-05-28T12:33:21;3.13;;;1.77;;
48042;SDS011;33988;47.992;8.820;2023-05-28T12:35:49;3.80;;;2.20;;
48042;SDS011;33988;47.992;8.820;2023-05-28T12:38:17;7.38;;;2.40;;
48042;SDS011;33988;47.992;8.820;2023-05-28T12:40:47;3.72;;;2.17;;
48042;SDS011;33988;47.992;8.820;2023-05-28T12:43:14;3.85;;;2.10;;
48042;SDS011;33988;47.992;8.820;2023-05-28T12:45:41;4.32;;;2.22;;
48042;SDS011;33988;47.992;8.820;2023-05-28T12:48:08;2.75;;;1.98;;
48042;SDS011;33988;47.992;8.820;2023-05-28T12:50:36;3.00;;;2.17;;
48042;SDS011;33988;47.992;8.820;2023-05-28T12:53:03;4.07;;;2.03;;
48042;SDS011;33988;47.992;8.820;2023-05-28T12:55:31;2.83;;;1.83;;
48042;SDS011;33988;47.992;8.820;2023-05-28T12:57:58;5.10;;;2.30;;
48042;SDS011;33988;47.992;8.820;2023-05-28T13:00:26;6.00;;;2.42;;
48042;SDS011;33988;47.992;8.820;2023-05-28T13:02:53;5.30;;;2.15;;
48042;SDS011;33988;47.992;8.820;2023-05-28T13:05:22;3.42;;;2.15;;
48042;SDS011;33988;47.992;8.820;2023-05-28T13:07:49;6.72;;;2.83;;
48042;SDS011;33988;47.992;8.820;2023-05-28T13:10:16;2.72;;;1.98;;
48042;SDS011;33988;47.992;8.820;2023-05-28T13:12:43;4.68;;;1.80;;
48042;SDS011;33988;47.992;8.820;2023-05-28T13:15:11;7.82;;;3.38;;
48042;SDS011;33988;47.992;8.820;2023-05-28T13:17:41;8.55;;;2.60;;
48042;SDS011;33988;47.992;8.820;2023-05-28T13:20:09;11.10;;;2.97;;
48042;SDS011;33988;47.992;8.820;2023-05-28T13:22:39;4.78;;;2.42;;
48042;SDS011;33988;47.992;8.820;2023-05-28T13:25:11;6.43;;;2.22;;
48042;SDS011;33988;47.992;8.820;2023-05-28T13:27:43;3.80;;;2.20;;
48042;SDS011;33988;47.992;8.820;2023-05-28T13:30:10;30.42;;;7.70;;
48042;SDS011;33988;47.992;8.820;2023-05-28T13:32:39;19.10;;;5.50;;
48042;SDS011;33988;47.992;8.820;2023-05-28T13:35:07;7.18;;;3.20;;
48042;SDS011;33988;47.992;8.820;2023-05-28T13:40:05;12.88;;;4.95;;
48042;SDS011;33988;47.992;8.820;2023-05-28T13:42:39;16.45;;;5.15;;
48042;SDS011;33988;47.992;8.820;2023-05-28T13:45:11;6.90;;;3.22;;
48042;SDS011;33988;47.992;8.820;2023-05-28T13:47:38;4.82;;;2.47;;
48042;SDS011;33988;47.992;8.820;2023-05-28T13:50:06;3.88;;;2.00;;
48042;SDS011;33988;47.992;8.820;2023-05-28T13:52:33;3.95;;;2.10;;
48042;SDS011;33988;47.992;8.820;2023-05-28T13:55:02;5.82;;;2.50;;
48042;SDS011;33988;47.992;8.820;2023-05-28T13:57:33;5.03;;;2.20;;
48042;SDS011;33988;47.992;8.820;2023-05-28T14:00:00;3.50;;;1.95;;
48042;SDS011;33988;47.992;8.820;2023-05-28T14:02:33;7.80;;;2.90;;
48042;SDS011;33988;47.992;8.820;2023-05-28T14:05:05;4.25;;;2.22;;
48042;SDS011;33988;47.992;8.820;2023-05-28T14:07:33;4.38;;;2.40;;
48042;SDS011;33988;47.992;8.820;2023-05-28T14:10:01;5.30;;;2.83;;
48042;SDS011;33988;47.992;8.820;2023-05-28T14:12:30;2.75;;;1.70;;
48042;SDS011;33988;47.992;8.820;2023-05-28T14:14:59;4.50;;;2.40;;
48042;SDS011;33988;47.992;8.820;2023-05-28T14:17:31;3.28;;;2.20;;
48042;SDS011;33988;47.992;8.820;2023-05-28T14:20:00;3.17;;;2.35;;
48042;SDS011;33988;47.992;8.820;2023-05-28T14:22:31;3.30;;;2.17;;
48042;SDS011;33988;47.992;8.820;2023-05-28T14:25:00;3.38;;;2.25;;
48042;SDS011;33988;47.992;8.820;2023-05-28T14:27:27;3.28;;;1.80;;
48042;SDS011;33988;47.992;8.820;2023-05-28T14:29:54;3.63;;;2.35;;
48042;SDS011;33988;47.992;8.820;2023-05-28T14:32:23;4.07;;;2.38;;
48042;SDS011;33988;47.992;8.820;2023-05-28T14:34:51;4.07;;;2.25;;
48042;SDS011;33988;47.992;8.820;2023-05-28T14:37:18;2.63;;;2.20;;
48042;SDS011;33988;47.992;8.820;2023-05-28T14:39:45;4.18;;;2.38;;
48042;SDS011;33988;47.992;8.820;2023-05-28T14:42:12;3.33;;;2.22;;
48042;SDS011;33988;47.992;8.820;2023-05-28T14:44:41;3.88;;;2.42;;
48042;SDS011;33988;47.992;8.820;2023-05-28T14:47:13;4.82;;;2.60;;
48042;SDS011;33988;47.992;8.820;2023-05-28T14:49:40;3.42;;;2.35;;
48042;SDS011;33988;47.992;8.820;2023-05-28T14:52:20;4.57;;;2.55;;
48042;SDS011;33988;47.992;8.820;2023-05-28T14:54:52;6.45;;;2.50;;
48042;SDS011;33988;47.992;8.820;2023-05-28T14:57:24;6.13;;;2.53;;
48042;SDS011;33988;47.992;8.820;2023-05-28T14:59:58;3.33;;;1.95;;
48042;SDS011;33988;47.992;8.820;2023-05-28T15:02:33;3.33;;;2.28;;
48042;SDS011;33988;47.992;8.820;2023-05-28T15:05:01;5.47;;;2.42;;
48042;SDS011;33988;47.992;8.820;2023-05-28T15:07:31;5.30;;;2.67;;
48042;SDS011;33988;47.992;8.820;2023-05-28T15:10:01;5.10;;;2.45;;
48042;SDS011;33988;47.992;8.820;2023-05-28T15:12:31;2.88;;;2.30;;
48042;SDS011;33988;47.992;8.820;2023-05-28T15:14:58;4.43;;;2.60;;
48042;SDS011;33988;47.992;8.820;2023-05-28T15:17:29;3.83;;;2.45;;
48042;SDS011;33988;47.992;8.820;2023-05-28T15:19:57;3.72;;;2.50;;
48042;SDS011;33988;47.992;8.820;2023-05-28T15:22:26;5.07;;;2.67;;
48042;SDS011;33988;47.992;8.820;2023-05-28T15:24:53;3.65;;;2.67;;
48042;SDS011;33988;47.992;8.820;2023-05-28T15:27:26;3.22;;;2.35;;
48042;SDS011;33988;47.992;8.820;2023-05-28T15:29:53;2.75;;;2.25;;
48042;SDS011;33988;47.992;8.820;2023-05-28T15:32:22;3.38;;;2.53;;
48042;SDS011;33988;47.992;8.820;2023-05-28T15:34:49;3.85;;;2.40;;
48042;SDS011;33988;47.992;8.820;2023-05-28T15:37:17;3.90;;;2.33;;